createdAt,value
2022-08-05T00:01:48.864Z,2.90
2022-08-05T00:04:55.579Z,2.80
2022-08-05T00:08:00.978Z,2.80
2022-08-05T00:11:20.281Z,2.53
2022-08-05T00:14:27.682Z,2.90
2022-08-05T00:17:31.015Z,3.10
2022-08-05T00:20:32.512Z,2.70
2022-08-05T00:23:45.956Z,3.10
2022-08-05T00:26:51.961Z,2.50
2022-08-05T00:29:54.331Z,2.72
2022-08-05T00:32:57.833Z,2.85
2022-08-05T00:36:16.258Z,3.38
2022-08-05T00:39:21.221Z,2.92
2022-08-05T00:42:33.708Z,3.00
2022-08-05T00:45:42.944Z,3.22
2022-08-05T00:48:50.261Z,3.22
2022-08-05T00:51:52.845Z,3.25
2022-08-05T00:54:54.615Z,3.30
2022-08-05T00:57:58.902Z,4.40
2022-08-05T01:01:00.721Z,4.13
2022-08-05T01:04:03.456Z,4.10
2022-08-05T01:07:15.266Z,4.30
2022-08-05T01:10:40.382Z,4.40
2022-08-05T01:14:15.531Z,4.78
2022-08-05T01:17:24.031Z,4.60
2022-08-05T01:20:36.983Z,4.53
2022-08-05T01:24:14.163Z,4.30
2022-08-05T01:27:24.351Z,4.28
2022-08-05T01:30:33.797Z,4.03
2022-08-05T01:33:43.489Z,4.63
2022-08-05T01:36:56.336Z,4.60
2022-08-05T01:40:03.646Z,4.40
2022-08-05T01:43:06.821Z,5.20
2022-08-05T01:46:43.184Z,4.72
2022-08-05T01:50:01.599Z,4.30
2022-08-05T01:53:09.927Z,4.85
2022-08-05T01:58:29.306Z,4.63
2022-08-05T01:59:39.778Z,4.32
2022-08-05T02:02:54.475Z,4.45
2022-08-05T02:05:59.654Z,4.80
2022-08-05T02:09:01.565Z,4.15
2022-08-05T02:12:06.343Z,4.30
2022-08-05T02:15:25.968Z,4.45
2022-08-05T02:19:09.216Z,4.32
2022-08-05T02:22:26.757Z,4.22
2022-08-05T02:25:49.229Z,4.68
2022-08-05T02:28:54.620Z,5.07
2022-08-05T02:31:58.015Z,4.20
2022-08-05T02:35:02.099Z,4.72
2022-08-05T02:38:19.457Z,4.40
2022-08-05T02:41:28.946Z,4.65
2022-08-05T02:44:40.826Z,4.60
2022-08-05T02:48:06.427Z,4.50
2022-08-05T02:51:06.574Z,4.28
2022-08-05T02:54:36.264Z,4.30
2022-08-05T02:58:12.160Z,4.40
2022-08-05T03:01:00.733Z,4.57
2022-08-05T03:04:12.015Z,4.47
2022-08-05T03:07:24.638Z,4.53
2022-08-05T03:10:37.417Z,4.60
2022-08-05T03:13:51.853Z,4.53
2022-08-05T03:17:00.797Z,4.50
2022-08-05T03:20:02.433Z,4.38
2022-08-05T03:23:06.290Z,4.32
2022-08-05T03:26:30.968Z,4.50
2022-08-05T03:29:45.392Z,4.55
2022-08-05T03:32:51.557Z,4.20
2022-08-05T03:35:56.792Z,4.45
2022-08-05T03:38:58.655Z,4.43
2022-08-05T03:42:00.223Z,4.93
2022-08-05T03:45:22.652Z,4.65
2022-08-05T03:48:26.282Z,4.93
2022-08-05T03:52:37.187Z,4.20
2022-08-05T03:56:05.719Z,4.65
2022-08-05T03:58:35.335Z,4.50
2022-08-05T04:01:40.210Z,4.88
2022-08-05T04:04:43.531Z,5.20
2022-08-05T04:07:57.529Z,6.22
2022-08-05T04:11:02.164Z,6.80
2022-08-05T04:14:04.426Z,6.88
2022-08-05T04:17:08.010Z,6.70
2022-08-05T04:20:18.004Z,6.40
2022-08-05T04:24:00.217Z,6.72
2022-08-05T04:26:46.742Z,7.07
2022-08-05T04:29:48.422Z,8.10
2022-08-05T04:32:49.872Z,7.27
2022-08-05T04:36:16.193Z,6.33
2022-08-05T04:39:12.730Z,6.40
2022-08-05T04:42:14.448Z,6.27
2022-08-05T04:45:31.320Z,4.37
2022-08-05T04:48:37.370Z,3.90
2022-08-05T04:51:39.174Z,3.67
2022-08-05T04:54:40.598Z,3.53
2022-08-05T04:57:47.609Z,3.50
2022-08-05T05:00:53.017Z,3.60
2022-08-05T05:03:54.470Z,3.80
2022-08-05T05:06:58.284Z,3.10
2022-08-05T05:10:04.030Z,3.03
2022-08-05T05:13:05.434Z,3.30
2022-08-05T05:16:07.262Z,2.90
2022-08-05T05:19:18.608Z,2.80
2022-08-05T05:22:23.888Z,2.90
2022-08-05T05:25:32.472Z,2.80
2022-08-05T05:28:38.883Z,2.67
2022-08-05T05:31:46.268Z,2.67
2022-08-05T05:34:48.118Z,2.93
2022-08-05T05:38:01.738Z,3.73
2022-08-05T05:41:03.867Z,3.03
2022-08-05T05:44:36.079Z,3.13
2022-08-05T05:48:06.000Z,2.67
2022-08-05T05:50:52.463Z,2.50
2022-08-05T05:53:58.811Z,2.57
2022-08-05T05:57:01.281Z,3.03
2022-08-05T06:00:10.115Z,3.07
2022-08-05T06:03:40.691Z,2.70
2022-08-05T06:06:37.755Z,2.83
2022-08-05T06:10:00.071Z,2.95
2022-08-05T06:13:03.786Z,3.00
2022-08-05T06:16:28.194Z,2.90
2022-08-05T06:19:34.875Z,2.70
2022-08-05T06:22:37.327Z,2.75
2022-08-05T06:26:12.943Z,2.85
2022-08-05T06:29:23.789Z,2.80
2022-08-05T06:32:28.974Z,3.00
2022-08-05T06:36:06.972Z,2.97
2022-08-05T06:38:54.597Z,3.33
2022-08-05T06:41:58.888Z,3.15
2022-08-05T06:45:00.618Z,3.20
2022-08-05T06:48:35.940Z,3.13
2022-08-05T06:51:30.707Z,3.17
2022-08-05T06:54:32.957Z,3.20
2022-08-05T06:57:58.199Z,3.20
2022-08-05T07:01:00.013Z,3.10
2022-08-05T07:04:02.461Z,3.15
2022-08-05T07:07:07.933Z,2.97
2022-08-05T07:10:10.065Z,3.30
2022-08-05T07:13:59.237Z,3.15
2022-08-05T07:17:58.330Z,2.88
2022-08-05T07:20:39.096Z,3.00
2022-08-05T07:23:49.123Z,2.78
2022-08-05T07:26:53.656Z,2.75
2022-08-05T07:30:24.749Z,3.00
2022-08-05T07:33:21.365Z,3.20
2022-08-05T07:36:38.981Z,2.50
2022-08-05T07:40:27.008Z,2.80
2022-08-05T07:43:04.899Z,2.70
2022-08-05T07:46:25.265Z,2.90
2022-08-05T07:49:27.036Z,2.60
2022-08-05T07:52:28.556Z,3.08
2022-08-05T07:55:44.215Z,2.60
2022-08-05T07:58:57.553Z,2.88
2022-08-05T08:02:02.274Z,2.78
2022-08-05T08:05:05.046Z,2.55
2022-08-05T08:08:06.479Z,2.65
2022-08-05T08:11:16.149Z,3.08
2022-08-05T08:14:18.974Z,2.90
2022-08-05T08:17:21.491Z,2.90
2022-08-05T08:20:59.908Z,2.88
2022-08-05T08:24:03.101Z,3.00
2022-08-05T08:27:07.271Z,2.95
2022-08-05T08:30:27.649Z,2.83
2022-08-05T08:33:37.438Z,2.95
2022-08-05T08:36:47.617Z,2.92
2022-08-05T08:39:54.285Z,2.92
2022-08-05T08:42:56.785Z,2.90
2022-08-05T08:45:59.349Z,2.97
2022-08-05T08:50:07.691Z,2.92
2022-08-05T08:52:30.198Z,2.70
2022-08-05T08:56:03.606Z,2.40
2022-08-05T08:58:59.119Z,2.97
2022-08-05T09:02:08.605Z,2.80
2022-08-05T09:05:16.381Z,2.50
2022-08-05T09:08:19.438Z,2.38
2022-08-05T09:11:51.524Z,2.33
2022-08-05T09:14:58.931Z,1.88
2022-08-05T09:18:08.842Z,2.42
2022-08-05T09:21:11.688Z,2.40
2022-08-05T09:24:22.596Z,2.10
2022-08-05T09:28:05.054Z,2.40
2022-08-05T09:31:23.213Z,2.20
2022-08-05T09:34:54.935Z,2.30
2022-08-05T09:38:12.310Z,2.00
2022-08-05T09:41:18.641Z,1.90
2022-08-05T09:44:37.106Z,1.85
2022-08-05T09:47:55.841Z,1.80
2022-08-05T09:51:01.585Z,1.70
2022-08-05T09:54:05.305Z,2.25
2022-08-05T09:57:23.185Z,2.20
2022-08-05T10:00:25.834Z,1.92
2022-08-05T10:03:56.575Z,2.08
2022-08-05T10:06:59.285Z,2.20
2022-08-05T10:10:15.222Z,3.55
2022-08-05T10:13:43.888Z,1.92
2022-08-05T10:16:52.374Z,2.10
2022-08-05T10:20:04.488Z,2.20
2022-08-05T10:23:34.431Z,1.95
2022-08-05T10:26:48.864Z,1.83
2022-08-05T10:30:06.519Z,2.25
2022-08-05T10:33:14.659Z,2.08
2022-08-05T10:36:16.850Z,2.05
2022-08-05T10:40:04.263Z,2.17
2022-08-05T10:42:56.222Z,2.10
2022-08-05T10:46:06.215Z,2.00
2022-08-05T10:49:10.503Z,2.17
2022-08-05T10:52:52.340Z,2.22
2022-08-05T10:56:21.031Z,2.05
2022-08-05T11:00:02.128Z,2.00
2022-08-05T11:03:23.104Z,2.00
2022-08-05T11:06:31.192Z,2.10
2022-08-05T11:10:07.723Z,2.00
2022-08-05T11:13:55.050Z,1.80
2022-08-05T11:17:57.863Z,2.40
2022-08-05T11:20:50.958Z,2.85
2022-08-05T11:24:04.140Z,2.15
2022-08-05T11:27:50.768Z,2.30
2022-08-05T11:30:58.552Z,2.00
2022-08-05T11:34:03.113Z,2.25
2022-08-05T11:37:06.151Z,2.38
2022-08-05T11:41:14.019Z,2.80
2022-08-05T11:44:40.834Z,2.20
2022-08-05T11:47:49.523Z,2.25
2022-08-05T11:50:53.068Z,2.35
2022-08-05T11:53:56.187Z,2.03
2022-08-05T11:56:58.015Z,2.30
2022-08-05T12:00:03.747Z,2.22
2022-08-05T12:03:28.494Z,2.53
2022-08-05T12:06:35.462Z,2.30
2022-08-05T12:09:54.393Z,2.60
2022-08-05T12:13:03.782Z,2.80
2022-08-05T12:16:19.053Z,2.70
2022-08-05T12:20:27.152Z,3.30
2022-08-05T12:22:46.143Z,3.20
2022-08-05T12:25:53.465Z,3.20
2022-08-05T12:28:54.949Z,2.83
2022-08-05T12:32:01.974Z,2.92
2022-08-05T12:35:05.302Z,3.47
2022-08-05T12:38:10.174Z,2.90
2022-08-05T12:41:14.046Z,3.38
2022-08-05T12:44:32.585Z,3.30
2022-08-05T12:48:01.014Z,3.08
2022-08-05T12:52:10.949Z,3.20
2022-08-05T12:54:35.714Z,3.28
2022-08-05T12:58:50.934Z,3.50
2022-08-05T13:02:02.216Z,3.22
2022-08-05T13:04:21.684Z,3.10
2022-08-05T13:10:50.758Z,3.10
2022-08-05T13:14:05.834Z,3.28
2022-08-05T13:17:32.011Z,3.30
2022-08-05T13:20:43.722Z,3.22
2022-08-05T13:23:50.674Z,3.13
2022-08-05T13:26:53.797Z,3.08
2022-08-05T13:29:59.400Z,3.35
2022-08-05T13:34:23.461Z,2.85
2022-08-05T13:36:38.695Z,2.90
2022-08-05T13:40:14.207Z,3.05
2022-08-05T13:43:02.872Z,2.88
2022-08-05T13:46:04.314Z,2.65
2022-08-05T13:49:09.814Z,3.00
2022-08-05T13:52:16.630Z,2.83
2022-08-05T13:55:41.720Z,3.10
2022-08-05T13:58:39.632Z,2.80
2022-08-05T14:01:46.720Z,2.60
2022-08-05T14:05:11.577Z,2.53
2022-08-05T14:08:21.335Z,2.55
2022-08-05T14:11:31.318Z,2.95
2022-08-05T14:14:32.807Z,2.85
2022-08-05T14:17:35.514Z,3.10
2022-08-05T14:20:37.006Z,2.70
2022-08-05T14:23:38.754Z,3.17
2022-08-05T14:26:47.168Z,2.90
2022-08-05T14:29:58.108Z,2.88
2022-08-05T14:33:00.632Z,2.90
2022-08-05T14:36:04.068Z,2.75
2022-08-05T14:39:05.875Z,2.70
2022-08-05T14:42:21.345Z,2.88
2022-08-05T14:45:23.351Z,3.05
2022-08-05T14:48:32.516Z,3.05
2022-08-05T14:51:42.767Z,2.92
2022-08-05T14:54:53.302Z,2.70
2022-08-05T14:57:56.541Z,3.25
2022-08-05T15:01:00.325Z,2.88
2022-08-05T15:04:03.495Z,2.90
2022-08-05T15:07:04.980Z,2.63
2022-08-05T15:10:09.922Z,2.78
2022-08-05T15:13:11.626Z,3.10
2022-08-05T15:16:13.342Z,2.70
2022-08-05T15:19:23.719Z,2.72
2022-08-05T15:22:27.249Z,2.88
2022-08-05T15:25:41.098Z,3.10
2022-08-05T15:28:52.010Z,3.00
2022-08-05T15:31:53.532Z,2.70
2022-08-05T15:34:54.970Z,3.50
2022-08-05T15:38:33.185Z,3.38
2022-08-05T15:41:21.388Z,3.20
2022-08-05T15:44:30.206Z,3.00
2022-08-05T15:47:32.365Z,3.60
2022-08-05T15:50:37.454Z,3.85
2022-08-05T15:53:51.023Z,4.40
2022-08-05T15:56:53.133Z,4.55
2022-08-05T15:59:57.744Z,4.72
2022-08-05T16:02:59.687Z,5.15
2022-08-05T16:06:01.253Z,4.75
2022-08-05T16:09:04.025Z,5.43
2022-08-05T16:12:05.860Z,6.00
2022-08-05T16:15:08.084Z,6.03
2022-08-05T16:18:12.209Z,6.78
2022-08-05T16:21:15.895Z,6.65
2022-08-05T16:24:39.827Z,7.35
2022-08-05T16:28:00.151Z,8.05
2022-08-05T16:31:01.385Z,8.63
2022-08-05T16:34:02.914Z,8.90
2022-08-05T16:38:01.815Z,8.95
2022-08-05T16:40:29.593Z,9.40
2022-08-05T16:43:33.173Z,8.68
2022-08-05T16:46:35.030Z,10.23
2022-08-05T16:49:38.990Z,10.85
2022-08-05T16:52:46.150Z,10.48
2022-08-05T16:55:47.681Z,11.30
2022-08-05T16:58:49.211Z,10.93
2022-08-05T17:01:54.540Z,11.50
2022-08-05T17:04:57.065Z,10.85
2022-08-05T17:07:58.722Z,10.45
2022-08-05T17:11:00.593Z,10.70
2022-08-05T17:14:06.165Z,8.73
2022-08-05T17:17:14.270Z,9.75
2022-08-05T17:20:16.614Z,9.70
2022-08-05T17:24:03.545Z,9.45
2022-08-05T17:26:40.900Z,8.33
2022-08-05T17:29:42.498Z,7.90
2022-08-05T17:32:43.908Z,7.97
2022-08-05T17:36:07.553Z,7.50
2022-08-05T17:39:24.468Z,6.80
2022-08-05T17:42:32.276Z,6.60
2022-08-05T17:45:38.709Z,6.73
2022-08-05T17:48:40.382Z,6.23
2022-08-05T17:51:46.457Z,6.67
2022-08-05T17:54:52.110Z,5.50
2022-08-05T17:57:54.088Z,5.20
2022-08-05T18:00:55.553Z,4.10
2022-08-05T18:04:04.453Z,3.93
2022-08-05T18:07:07.205Z,4.03
2022-08-05T18:10:20.348Z,4.13
2022-08-05T18:13:22.677Z,3.73
2022-08-05T18:16:27.369Z,3.67
2022-08-05T18:19:28.790Z,3.20
2022-08-05T18:22:36.230Z,3.30
2022-08-05T18:25:39.424Z,3.13
2022-08-05T18:28:41.405Z,3.30
2022-08-05T18:31:49.698Z,3.67
2022-08-05T18:34:51.210Z,3.27
2022-08-05T18:37:52.662Z,2.77
2022-08-05T18:41:55.075Z,2.73
2022-08-05T18:44:33.342Z,2.47
2022-08-05T18:47:37.942Z,2.40
2022-08-05T18:52:03.016Z,2.20
2022-08-05T18:54:19.360Z,2.13
2022-08-05T18:57:23.940Z,2.30
2022-08-05T19:00:29.221Z,2.03
2022-08-05T19:03:52.707Z,1.80
2022-08-05T19:06:53.504Z,1.80
2022-08-05T19:09:55.537Z,1.47
2022-08-05T19:12:57.493Z,1.80
2022-08-05T19:16:03.525Z,1.83
2022-08-05T19:19:05.417Z,1.67
2022-08-05T19:22:07.004Z,1.80
2022-08-05T19:25:10.578Z,1.50
2022-08-05T19:28:23.245Z,1.60
2022-08-05T19:31:26.163Z,1.60
2022-08-05T19:34:35.355Z,1.60
2022-08-05T19:38:04.208Z,1.50
2022-08-05T19:40:58.264Z,1.57
2022-08-05T19:44:12.758Z,1.60
2022-08-05T19:47:16.309Z,1.80
2022-08-05T19:50:19.880Z,1.90
2022-08-05T19:54:04.707Z,1.50
2022-08-05T19:56:42.782Z,1.33
2022-08-05T20:00:01.230Z,1.60
2022-08-05T20:03:12.844Z,1.50
2022-08-05T20:06:15.976Z,1.50
2022-08-05T20:09:30.389Z,1.50
2022-08-05T20:12:52.061Z,1.60
2022-08-05T20:15:56.800Z,1.83
2022-08-05T20:18:59.142Z,1.60
2022-08-05T20:22:02.956Z,1.70
2022-08-05T20:25:06.817Z,1.60
2022-08-05T20:28:14.558Z,1.87
2022-08-05T20:31:17.534Z,1.50
2022-08-05T20:34:23.460Z,1.60
2022-08-05T20:38:05.499Z,1.50
2022-08-05T20:40:47.480Z,1.63
2022-08-05T20:43:59.684Z,1.70
2022-08-05T20:47:05.164Z,2.13
2022-08-05T20:50:11.377Z,1.40
2022-08-05T20:53:15.923Z,1.60
2022-08-05T20:56:42.283Z,1.60
2022-08-05T21:00:11.191Z,1.80
2022-08-05T21:03:07.576Z,1.40
2022-08-05T21:06:28.591Z,1.23
2022-08-05T21:09:32.282Z,1.23
2022-08-05T21:12:35.969Z,1.60
2022-08-05T21:15:37.411Z,1.50
2022-08-05T21:18:38.865Z,1.47
2022-08-05T21:21:50.994Z,1.40
2022-08-05T21:24:54.290Z,1.70
2022-08-05T21:27:56.373Z,1.30
2022-08-05T21:30:58.775Z,1.40
2022-08-05T21:34:00.192Z,1.30
2022-08-05T21:37:04.682Z,1.27
2022-08-05T21:40:07.202Z,1.30
2022-08-05T21:43:23.898Z,1.30
2022-08-05T21:46:27.259Z,1.40
2022-08-05T21:49:59.295Z,1.20
2022-08-05T21:52:52.347Z,1.40
2022-08-05T21:56:04.979Z,1.50
2022-08-05T21:59:24.113Z,1.50
2022-08-05T22:02:27.831Z,1.50
2022-08-05T22:05:29.409Z,1.30
2022-08-05T22:08:52.490Z,1.33
2022-08-05T22:11:54.629Z,1.40
2022-08-05T22:14:56.918Z,1.33
2022-08-05T22:18:00.058Z,1.20
2022-08-05T22:21:04.018Z,1.37
2022-08-05T22:24:40.248Z,1.27
2022-08-05T22:28:08.641Z,1.50
2022-08-05T22:31:09.025Z,1.40
2022-08-05T22:34:12.912Z,1.37
2022-08-05T22:37:58.076Z,1.93
2022-08-05T22:40:49.558Z,1.50
2022-08-05T22:43:51.630Z,1.40
2022-08-05T22:46:53.043Z,1.40
2022-08-05T22:50:18.062Z,1.40
2022-08-05T22:53:16.637Z,1.47
2022-08-05T22:56:30.621Z,1.50
2022-08-05T22:59:47.408Z,1.50
2022-08-05T23:02:53.914Z,1.40
2022-08-05T23:05:55.851Z,1.47
2022-08-05T23:08:57.270Z,1.30
2022-08-05T23:12:20.224Z,1.40
2022-08-05T23:15:29.494Z,1.30
2022-08-05T23:18:36.204Z,1.27
2022-08-05T23:21:43.025Z,1.40
2022-08-05T23:24:51.068Z,1.03
2022-08-05T23:28:00.165Z,1.23
2022-08-05T23:31:17.040Z,1.40
2022-08-05T23:34:24.605Z,1.30
2022-08-05T23:37:26.695Z,1.20
2022-08-05T23:40:35.803Z,1.30
2022-08-05T23:44:05.430Z,1.33
2022-08-05T23:47:02.645Z,1.30
2022-08-05T23:50:16.998Z,1.20
2022-08-05T23:53:22.599Z,1.20
2022-08-05T23:56:27.480Z,1.20
